Time;durP1;ratioP1;P1;durP2;ratioP2;P2;SDS_P1;SDS_P2;PMS_P1;PMS_P2;Temp;Humidity;BMP_temperature;BMP_pressure;BME280_temperature;BME280_humidity;BME280_pressure;Samples;Min_cycle;Max_cycle;Signal;HPM_P1;HPM_P2
2021/01/19 00:00:07;;;;;;;2.40;2.30;;;5.00;99.90;;;;;;4961670;28;20256;-86
2021/01/19 00:02:32;;;;;;;4.90;2.13;;;5.00;99.90;;;;;;4979761;28;20235;-86
2021/01/19 00:05:00;;;;;;;3.50;2.93;;;5.00;99.90;;;;;;4979999;28;20311;-88
2021/01/19 00:07:29;;;;;;;7.97;2.60;;;5.00;99.90;;;;;;4947444;28;20224;-87
2021/01/19 00:09:55;;;;;;;3.37;3.13;;;5.00;99.90;;;;;;4963037;28;20230;-87
2021/01/19 00:12:22;;;;;;;2.53;1.17;;;5.00;99.90;;;;;;4979097;28;20270;-87
2021/01/19 00:14:48;;;;;;;3.50;2.27;;;5.10;99.90;;;;;;4979909;28;20227;-88
2021/01/19 00:17:14;;;;;;;1.67;1.57;;;5.10;99.90;;;;;;4964798;28;20258;-87
2021/01/19 00:19:40;;;;;;;6.00;3.03;;;5.10;99.90;;;;;;4948238;28;20251;-87
2021/01/19 00:22:06;;;;;;;6.50;2.90;;;5.10;99.90;;;;;;4963213;28;20354;-88
2021/01/19 00:24:32;;;;;;;4.53;2.83;;;5.10;99.90;;;;;;4980303;28;20220;-86
2021/01/19 00:26:57;;;;;;;3.37;3.07;;;5.10;99.90;;;;;;4945397;28;20946;-88
2021/01/19 00:29:23;;;;;;;2.60;1.70;;;5.10;99.90;;;;;;4948898;28;20556;-88
2021/01/19 00:31:49;;;;;;;2.93;2.50;;;5.20;99.90;;;;;;4978527;28;20689;-87
2021/01/19 00:34:16;;;;;;;4.80;2.93;;;5.20;99.90;;;;;;4963432;28;20219;-88
2021/01/19 00:36:41;;;;;;;4.57;2.27;;;5.20;99.90;;;;;;4947049;28;20294;-87
2021/01/19 00:39:08;;;;;;;1.40;0.87;;;5.20;99.90;;;;;;4982091;28;21034;-86
2021/01/19 00:41:34;;;;;;;2.60;2.10;;;5.20;99.90;;;;;;4951580;28;20262;-86
2021/01/19 00:44:00;;;;;;;4.30;2.97;;;5.20;99.90;;;;;;4949637;28;20220;-86
2021/01/19 00:46:26;;;;;;;2.53;2.03;;;5.20;99.90;;;;;;4966740;28;20688;-86
2021/01/19 00:48:51;;;;;;;5.90;3.00;;;5.20;99.90;;;;;;4966065;28;20278;-87
2021/01/19 00:51:19;;;;;;;2.63;1.57;;;5.20;99.90;;;;;;4950177;28;20222;-86
2021/01/19 00:53:44;;;;;;;2.37;2.13;;;5.20;99.90;;;;;;4951191;28;20199;-87
2021/01/19 00:56:10;;;;;;;6.40;2.70;;;5.20;99.90;;;;;;4951379;28;20207;-86
2021/01/19 00:58:36;;;;;;;6.10;3.80;;;5.20;99.90;;;;;;4965382;28;20227;-86
2021/01/19 01:01:01;;;;;;;4.10;3.53;;;5.20;99.90;;;;;;4965810;28;20349;-86
2021/01/19 01:03:29;;;;;;;10.07;3.70;;;5.20;99.90;;;;;;4983084;28;20220;-87
2021/01/19 01:05:56;;;;;;;6.07;4.40;;;5.30;99.90;;;;;;4966068;28;20219;-87
2021/01/19 01:08:22;;;;;;;5.63;3.80;;;5.30;99.90;;;;;;4951193;28;20188;-86
2021/01/19 01:10:49;;;;;;;5.40;4.17;;;5.30;99.90;;;;;;4950237;28;20223;-88
2021/01/19 01:13:16;;;;;;;5.83;5.17;;;5.30;99.90;;;;;;4982763;28;20797;-88
2021/01/19 01:15:43;;;;;;;9.57;5.10;;;5.30;99.90;;;;;;4982675;28;20223;-88
2021/01/19 01:18:13;;;;;;;8.37;7.03;;;5.30;99.90;;;;;;4963693;28;20227;-87
2021/01/19 01:20:42;;;;;;;5.70;4.70;;;5.30;99.90;;;;;;4948283;28;20310;-86
2021/01/19 01:23:13;;;;;;;13.53;7.03;;;5.30;99.90;;;;;;4964662;28;20226;-86
2021/01/19 01:25:42;;;;;;;5.23;4.77;;;5.30;99.90;;;;;;4982911;28;20220;-86
2021/01/19 01:28:08;;;;;;;8.07;6.27;;;5.40;99.90;;;;;;4979425;28;20215;-87
2021/01/19 01:30:33;;;;;;;9.57;7.10;;;5.40;99.90;;;;;;4946448;28;20234;-85
2021/01/19 01:32:59;;;;;;;6.40;5.83;;;5.40;99.90;;;;;;4946969;28;20184;-87
2021/01/19 01:35:25;;;;;;;6.87;6.17;;;5.50;99.90;;;;;;4964676;28;20204;-87
2021/01/19 01:37:53;;;;;;;11.47;5.33;;;5.50;99.90;;;;;;4964906;28;20945;-88
2021/01/19 01:40:23;;;;;;;13.37;7.77;;;5.50;99.90;;;;;;4965322;28;20215;-87
2021/01/19 01:42:50;;;;;;;8.20;5.93;;;5.50;99.90;;;;;;4965506;28;20339;-87
2021/01/19 01:45:19;;;;;;;8.77;4.60;;;5.50;99.90;;;;;;4965538;28;20230;-87
2021/01/19 01:47:48;;;;;;;7.63;5.47;;;5.50;99.90;;;;;;4965448;28;20267;-86
2021/01/19 01:50:14;;;;;;;8.83;5.17;;;5.50;99.90;;;;;;4966494;28;20235;-86
2021/01/19 01:52:40;;;;;;;4.83;3.63;;;5.50;99.90;;;;;;4982271;28;20310;-87
2021/01/19 01:55:06;;;;;;;6.37;5.73;;;5.60;99.90;;;;;;4948709;28;20224;-86
2021/01/19 01:57:36;;;;;;;3.77;3.23;;;5.50;99.90;;;;;;4963918;28;20295;-86
2021/01/19 02:00:05;;;;;;;8.17;5.10;;;5.60;99.90;;;;;;4963548;28;20198;-87
2021/01/19 02:02:31;;;;;;;9.73;6.13;;;5.50;99.90;;;;;;4964977;28;20295;-87
2021/01/19 02:04:57;;;;;;;4.73;3.97;;;5.60;99.90;;;;;;4963465;28;20363;-86
2021/01/19 02:07:54;;;;;;;7.03;6.33;;;5.60;99.90;;;;;;4948831;28;20235;-87
2021/01/19 02:10:43;;;;;;;5.20;4.57;;;5.60;99.90;;;;;;4963733;28;21058;-85
2021/01/19 02:13:23;;;;;;;8.53;6.07;;;5.60;99.90;;;;;;4963741;28;20230;-86
2021/01/19 02:15:57;;;;;;;5.07;4.40;;;5.60;99.90;;;;;;4981454;28;20226;-87
2021/01/19 02:18:51;;;;;;;5.87;4.43;;;5.60;99.90;;;;;;4963348;28;20274;-86
2021/01/19 02:21:37;;;;;;;5.80;4.33;;;5.60;99.90;;;;;;4963427;28;20231;-86
2021/01/19 02:24:13;;;;;;;6.10;4.50;;;5.60;99.90;;;;;;4963589;28;20223;-86
2021/01/19 02:27:00;;;;;;;8.50;5.63;;;5.60;99.90;;;;;;4964140;28;20203;-86
2021/01/19 02:29:53;;;;;;;6.40;5.67;;;5.60;99.90;;;;;;4981308;28;20681;-87
2021/01/19 02:32:25;;;;;;;3.47;2.93;;;5.60;99.90;;;;;;4980804;28;20222;-87
2021/01/19 02:35:02;;;;;;;7.83;3.83;;;5.60;99.90;;;;;;4981412;28;20224;-86
2021/01/19 02:37:34;;;;;;;3.87;3.43;;;5.50;99.90;;;;;;4980885;28;20220;-87
2021/01/19 02:40:07;;;;;;;6.70;4.73;;;5.50;99.90;;;;;;4981611;28;20306;-87
2021/01/19 02:43:06;;;;;;;3.13;2.93;;;5.50;99.90;;;;;;4980396;28;20232;-85
2021/01/19 02:45:32;;;;;;;2.80;2.50;;;5.50;99.90;;;;;;4963416;28;20219;-87
2021/01/19 02:47:58;;;;;;;3.20;3.00;;;5.40;99.90;;;;;;4963401;28;20190;-85
2021/01/19 02:50:24;;;;;;;3.17;2.57;;;5.40;99.90;;;;;;4965080;28;20639;-86
2021/01/19 02:52:51;;;;;;;6.33;4.63;;;5.40;99.90;;;;;;4947521;28;20380;-85
2021/01/19 02:55:17;;;;;;;4.33;2.87;;;5.40;99.90;;;;;;4980395;28;20215;-87
2021/01/19 02:58:00;;;;;;;4.30;2.23;;;5.40;99.90;;;;;;4963199;28;20701;-86
2021/01/19 03:00:36;;;;;;;3.50;1.93;;;5.40;99.90;;;;;;4963070;28;20374;-87
2021/01/19 03:03:05;;;;;;;3.07;2.10;;;5.30;99.90;;;;;;4963654;28;20237;-86
2021/01/19 03:05:32;;;;;;;3.73;3.43;;;5.30;99.90;;;;;;4964735;28;20278;-86
2021/01/19 03:08:06;;;;;;;3.13;2.77;;;5.30;99.90;;;;;;4961234;28;20250;-87
2021/01/19 03:10:34;;;;;;;3.57;3.37;;;5.30;99.90;;;;;;4981556;28;20719;-86
2021/01/19 03:13:02;;;;;;;5.33;3.43;;;5.30;99.90;;;;;;4964015;28;20223;-86
2021/01/19 03:15:28;;;;;;;2.93;2.73;;;5.30;99.90;;;;;;4980960;28;20239;-86
2021/01/19 03:17:54;;;;;;;4.30;3.23;;;5.20;99.90;;;;;;4979540;28;20211;-87
2021/01/19 03:20:22;;;;;;;2.60;2.40;;;5.20;99.90;;;;;;4949224;28;20192;-86
2021/01/19 03:22:47;;;;;;;3.13;2.03;;;5.20;99.90;;;;;;4963631;28;20223;-87
2021/01/19 03:25:13;;;;;;;0.87;0.80;;;5.20;99.90;;;;;;4947776;28;20564;-88
2021/01/19 03:27:39;;;;;;;1.67;1.57;;;5.10;99.90;;;;;;4962330;28;20311;-87
2021/01/19 03:30:05;;;;;;;3.93;3.60;;;5.10;99.90;;;;;;4963532;28;20223;-86
2021/01/19 03:32:31;;;;;;;2.00;1.90;;;5.10;99.90;;;;;;4980082;28;20567;-86
2021/01/19 03:34:56;;;;;;;2.60;2.40;;;5.10;99.90;;;;;;4960504;28;20215;-88
2021/01/19 03:37:22;;;;;;;4.23;3.30;;;5.10;99.90;;;;;;4960595;28;20227;-88
2021/01/19 03:39:48;;;;;;;2.17;1.47;;;5.10;99.90;;;;;;4960459;28;20638;-87
2021/01/19 03:42:14;;;;;;;2.53;2.23;;;5.10;99.90;;;;;;4945444;28;20307;-87
2021/01/19 03:44:39;;;;;;;3.40;2.57;;;5.10;99.90;;;;;;4981372;28;20196;-86
2021/01/19 03:47:05;;;;;;;3.27;2.77;;;5.10;99.90;;;;;;4946665;28;21206;-87
2021/01/19 03:49:31;;;;;;;4.43;2.07;;;5.10;99.90;;;;;;4937322;29;20237;-88
2021/01/19 03:51:57;;;;;;;3.87;2.93;;;5.00;99.90;;;;;;4925637;29;20228;-87
2021/01/19 03:54:22;;;;;;;1.57;1.57;;;5.00;99.90;;;;;;4938949;29;20233;-86
2021/01/19 03:56:48;;;;;;;6.30;2.30;;;5.10;99.90;;;;;;4924560;28;20181;-87
2021/01/19 03:59:14;;;;;;;3.70;2.67;;;5.10;99.90;;;;;;4926186;29;20196;-86
2021/01/19 04:01:41;;;;;;;1.67;1.40;;;5.10;99.90;;;;;;4941147;29;20719;-86
2021/01/19 04:04:07;;;;;;;2.23;1.33;;;5.10;99.90;;;;;;4940343;29;20225;-86
2021/01/19 04:06:33;;;;;;;6.50;2.80;;;5.10;99.90;;;;;;4938699;29;20217;-86
2021/01/19 04:08:59;;;;;;;7.80;2.40;;;5.10;99.90;;;;;;4939039;28;20244;-88
2021/01/19 04:11:25;;;;;;;3.40;3.10;;;5.10;99.90;;;;;;4924932;29;20199;-87
2021/01/19 04:13:51;;;;;;;1.73;1.63;;;5.10;99.90;;;;;;4931501;29;20226;-87
2021/01/19 04:16:17;;;;;;;3.13;2.80;;;5.10;99.90;;;;;;4928180;29;20297;-86
2021/01/19 04:18:43;;;;;;;2.10;1.97;;;5.10;99.90;;;;;;4931359;29;20228;-86
2021/01/19 04:21:08;;;;;;;2.00;1.90;;;5.10;99.90;;;;;;4943469;29;20800;-87
2021/01/19 04:23:34;;;;;;;4.57;3.03;;;5.10;99.90;;;;;;4929258;28;20275;-87
2021/01/19 04:26:00;;;;;;;3.70;3.07;;;5.10;99.90;;;;;;4947556;28;20224;-86
2021/01/19 04:28:26;;;;;;;1.67;1.57;;;5.10;99.90;;;;;;4945846;29;20580;-86
2021/01/19 04:30:52;;;;;;;2.90;2.27;;;5.10;99.90;;;;;;4931554;29;20224;-87
2021/01/19 04:33:18;;;;;;;2.63;2.13;;;5.10;99.90;;;;;;4930260;29;20232;-87
2021/01/19 04:35:44;;;;;;;2.10;2.00;;;5.10;99.90;;;;;;4946152;28;21121;-86
2021/01/19 04:38:09;;;;;;;2.20;2.03;;;5.10;99.90;;;;;;4946769;28;21162;-86
2021/01/19 04:40:36;;;;;;;4.90;2.37;;;5.10;99.90;;;;;;4946625;28;20231;-87
2021/01/19 04:43:05;;;;;;;4.97;2.73;;;5.10;99.90;;;;;;4946000;28;20258;-87
2021/01/19 04:45:32;;;;;;;2.60;2.40;;;5.10;99.90;;;;;;4946231;28;20228;-87
2021/01/19 04:48:01;;;;;;;4.43;2.23;;;5.10;99.90;;;;;;4946264;28;20276;-87
2021/01/19 04:50:29;;;;;;;2.53;2.33;;;5.20;99.90;;;;;;4945473;28;20243;-87
2021/01/19 04:52:59;;;;;;;2.07;1.50;;;5.10;99.90;;;;;;4960075;28;20647;-87
2021/01/19 04:55:26;;;;;;;3.93;3.63;;;5.10;99.90;;;;;;4961761;28;21306;-87
2021/01/19 04:58:01;;;;;;;1.77;1.67;;;5.10;99.90;;;;;;4962296;28;20217;-86
2021/01/19 05:00:33;;;;;;;3.13;2.17;;;5.10;99.90;;;;;;4946218;29;20220;-87
2021/01/19 05:03:01;;;;;;;2.23;1.97;;;5.10;99.90;;;;;;4945488;28;20189;-87
2021/01/19 05:05:36;;;;;;;1.27;1.27;;;5.10;99.90;;;;;;4945667;29;20205;-86
2021/01/19 05:08:17;;;;;;;1.33;1.17;;;5.10;99.90;;;;;;4944616;28;20268;-86
2021/01/19 05:10:59;;;;;;;3.40;2.77;;;5.10;99.90;;;;;;4945652;28;20225;-86
2021/01/19 05:13:46;;;;;;;1.83;1.73;;;5.10;99.90;;;;;;4960970;28;20232;-86
2021/01/19 05:16:30;;;;;;;2.47;2.27;;;5.10;99.90;;;;;;4961616;28;20229;-87
2021/01/19 05:18:56;;;;;;;1.33;1.27;;;5.10;99.90;;;;;;4945090;29;20201;-86
2021/01/19 05:21:23;;;;;;;1.83;1.73;;;5.10;99.90;;;;;;4929506;29;20228;-87
2021/01/19 05:23:49;;;;;;;5.53;2.47;;;5.20;99.90;;;;;;4944104;28;20194;-86
2021/01/19 05:26:17;;;;;;;1.83;1.73;;;5.20;99.90;;;;;;4929145;29;20197;-86
2021/01/19 05:28:46;;;;;;;2.83;2.47;;;5.10;99.90;;;;;;4941056;28;20228;-87
2021/01/19 05:31:15;;;;;;;2.10;2.00;;;5.20;99.90;;;;;;4942665;29;20226;-87
2021/01/19 05:33:53;;;;;;;2.70;2.37;;;5.20;99.90;;;;;;4942356;28;20573;-87
2021/01/19 05:36:20;;;;;;;1.53;1.53;;;5.20;99.90;;;;;;4958611;28;20225;-86
2021/01/19 05:38:48;;;;;;;2.73;2.50;;;5.20;99.90;;;;;;4942555;28;20198;-88
2021/01/19 05:41:29;;;;;;;2.93;2.10;;;5.20;99.90;;;;;;4940745;28;20263;-88
2021/01/19 05:43:55;;;;;;;2.73;2.50;;;5.20;99.90;;;;;;4942978;28;20283;-90
2021/01/19 05:46:28;;;;;;;2.27;2.03;;;5.20;99.90;;;;;;4927560;29;20221;-89
2021/01/19 05:49:03;;;;;;;7.53;4.57;;;5.20;99.90;;;;;;4951880;28;20229;-88
2021/01/19 05:51:30;;;;;;;5.80;5.03;;;5.20;99.90;;;;;;4963817;28;20223;-88
2021/01/19 05:53:58;;;;;;;3.10;2.80;;;5.20;99.90;;;;;;4964600;28;20192;-88
2021/01/19 05:56:25;;;;;;;3.17;2.87;;;5.20;99.90;;;;;;4966724;28;20351;-89
2021/01/19 05:58:51;;;;;;;4.03;2.30;;;5.20;99.90;;;;;;4964764;28;20223;-88
2021/01/19 06:01:29;;;;;;;2.50;2.30;;;5.20;99.90;;;;;;4946861;28;20232;-89
2021/01/19 06:03:57;;;;;;;2.27;2.07;;;5.20;99.90;;;;;;4982247;28;20216;-89
2021/01/19 06:06:26;;;;;;;2.20;1.33;;;5.30;99.90;;;;;;4965123;28;20228;-90
2021/01/19 06:09:03;;;;;;;2.33;2.13;;;5.30;99.90;;;;;;4983030;28;20251;-86
2021/01/19 06:11:29;;;;;;;2.83;2.60;;;5.30;99.90;;;;;;4964371;28;20195;-88
2021/01/19 06:13:56;;;;;;;4.20;2.03;;;5.30;99.90;;;;;;4965173;28;20747;-86
2021/01/19 06:16:25;;;;;;;2.60;2.43;;;5.30;99.90;;;;;;4965648;28;20382;-88
2021/01/19 06:18:51;;;;;;;3.10;2.80;;;5.30;99.90;;;;;;4982500;28;20216;-89
2021/01/19 06:21:34;;;;;;;3.10;2.80;;;5.30;99.90;;;;;;4965362;28;20232;-86
2021/01/19 06:23:59;;;;;;;2.93;2.73;;;5.40;99.90;;;;;;4980049;28;20192;-86
2021/01/19 06:26:25;;;;;;;2.70;1.83;;;5.40;99.90;;;;;;4948087;28;20204;-86
2021/01/19 06:28:51;;;;;;;2.53;2.33;;;5.40;99.90;;;;;;4964571;28;20225;-86
2021/01/19 06:31:21;;;;;;;4.63;3.20;;;5.40;99.90;;;;;;4940154;28;20220;-86
2021/01/19 06:33:49;;;;;;;5.50;2.83;;;5.40;99.90;;;;;;4981212;28;20224;-87
2021/01/19 06:36:19;;;;;;;1.70;1.60;;;5.50;99.90;;;;;;4964039;28;20231;-88
2021/01/19 06:38:49;;;;;;;2.00;1.90;;;5.40;99.90;;;;;;4982798;28;20189;-87
2021/01/19 06:41:19;;;;;;;3.30;2.50;;;5.50;99.90;;;;;;4982950;28;20306;-86
2021/01/19 06:43:54;;;;;;;2.33;2.13;;;5.50;99.90;;;;;;4965842;28;20219;-87
2021/01/19 06:46:21;;;;;;;3.27;2.60;;;5.50;99.90;;;;;;4957492;28;20226;-87
2021/01/19 06:48:47;;;;;;;3.20;1.93;;;5.50;99.90;;;;;;4982205;28;20250;-87
2021/01/19 06:51:14;;;;;;;2.33;2.13;;;5.50;99.90;;;;;;4965033;28;20722;-87
2021/01/19 06:53:44;;;;;;;2.60;2.40;;;5.50;99.90;;;;;;4983147;28;20192;-86
2021/01/19 06:56:11;;;;;;;4.00;2.40;;;5.50;99.90;;;;;;4979773;28;20228;-86
2021/01/19 06:58:57;;;;;;;1.73;1.63;;;5.60;99.90;;;;;;4961388;28;20227;-85
2021/01/19 07:01:25;;;;;;;2.60;1.73;;;5.60;99.90;;;;;;4978179;28;20252;-86
2021/01/19 07:04:23;;;;;;;2.47;2.23;;;5.60;99.90;;;;;;4980975;28;20322;-87
2021/01/19 07:07:06;;;;;;;2.63;2.43;;;5.60;99.90;;;;;;4963812;28;20220;-86
2021/01/19 07:10:11;;;;;;;6.60;2.57;;;5.60;99.90;;;;;;4963413;28;20215;-88
2021/01/19 07:13:08;;;;;;;3.60;3.03;;;5.60;99.90;;;;;;4977427;28;20231;-89
2021/01/19 07:15:53;;;;;;;5.33;3.97;;;5.60;99.90;;;;;;4961595;28;20248;-88
2021/01/19 07:18:40;;;;;;;7.73;7.03;;;5.60;99.90;;;;;;4961189;28;20247;-88
2021/01/19 07:21:08;;;;;;;6.67;5.47;;;5.60;99.90;;;;;;4965365;28;20248;-88
2021/01/19 07:23:46;;;;;;;4.23;3.83;;;5.60;99.90;;;;;;4966241;28;20199;-86
2021/01/19 07:26:23;;;;;;;5.83;3.53;;;5.60;99.90;;;;;;4981068;28;20212;-88
2021/01/19 07:28:51;;;;;;;2.20;1.73;;;5.70;99.90;;;;;;4939087;28;20277;-88
2021/01/19 07:31:18;;;;;;;2.53;2.33;;;5.70;99.90;;;;;;4981211;28;20239;-88
2021/01/19 07:33:49;;;;;;;2.33;2.10;;;5.60;99.90;;;;;;4963714;28;20762;-88
2021/01/19 07:36:16;;;;;;;1.57;1.47;;;5.70;99.90;;;;;;4978663;28;20255;-86
2021/01/19 07:38:41;;;;;;;3.03;2.33;;;5.70;99.90;;;;;;4965516;28;20194;-88
2021/01/19 07:41:08;;;;;;;5.43;4.77;;;5.70;99.90;;;;;;4982113;28;20236;-91
2021/01/19 07:43:35;;;;;;;4.47;3.83;;;5.70;99.90;;;;;;4948024;28;20274;-91
2021/01/19 07:46:02;;;;;;;7.20;4.27;;;5.70;99.90;;;;;;4963264;28;20685;-92
2021/01/19 07:48:29;;;;;;;4.90;4.37;;;5.80;99.90;;;;;;4984013;28;20226;-90
2021/01/19 07:50:56;;;;;;;5.27;4.70;;;5.80;99.90;;;;;;4966428;28;20326;-92
2021/01/19 07:53:22;;;;;;;4.30;3.00;;;5.80;99.90;;;;;;4951584;28;20196;-93
2021/01/19 07:55:53;;;;;;;5.93;4.50;;;5.80;99.90;;;;;;4968861;28;20316;-92
2021/01/19 07:58:21;;;;;;;3.97;3.50;;;5.80;99.90;;;;;;4951937;28;20208;-94
2021/01/19 08:00:54;;;;;;;4.50;3.77;;;5.80;99.90;;;;;;4966630;28;20684;-89
2021/01/19 08:03:27;;;;;;;5.83;4.07;;;5.80;99.90;;;;;;4963914;28;20219;-86
2021/01/19 08:05:53;;;;;;;7.23;6.33;;;5.80;99.90;;;;;;4965302;28;20191;-92
2021/01/19 08:08:19;;;;;;;6.03;4.90;;;5.80;99.90;;;;;;4966414;28;20195;-91
2021/01/19 08:10:57;;;;;;;6.73;4.80;;;5.80;99.90;;;;;;4966071;28;20298;-91
2021/01/19 08:13:24;;;;;;;3.37;2.70;;;5.80;99.90;;;;;;4964316;28;20215;-94
2021/01/19 08:16:07;;;;;;;7.70;6.17;;;5.90;99.90;;;;;;4946716;28;20796;-91
2021/01/19 08:18:43;;;;;;;8.33;5.40;;;5.90;99.90;;;;;;4945062;28;20239;-90
2021/01/19 08:21:11;;;;;;;5.67;3.80;;;5.90;99.90;;;;;;4983899;28;20239;-91
2021/01/19 08:23:37;;;;;;;6.17;3.93;;;5.90;99.90;;;;;;4967381;28;20212;-95
2021/01/19 08:26:08;;;;;;;4.00;3.27;;;6.00;99.90;;;;;;4948329;28;20216;-92
2021/01/19 08:28:35;;;;;;;3.43;3.13;;;6.00;99.90;;;;;;4957753;28;20227;-87
2021/01/19 08:31:01;;;;;;;4.03;2.67;;;6.00;99.90;;;;;;4945502;28;20657;-89
2021/01/19 08:33:27;;;;;;;4.87;4.33;;;6.00;99.90;;;;;;4960272;28;20219;-88
2021/01/19 08:35:58;;;;;;;3.13;2.80;;;6.00;99.90;;;;;;4979705;28;20246;-90
2021/01/19 08:38:24;;;;;;;3.30;2.20;;;6.00;99.90;;;;;;4949573;28;20693;-90
2021/01/19 08:40:50;;;;;;;3.80;3.50;;;6.00;99.90;;;;;;4964044;28;20770;-91
2021/01/19 08:43:17;;;;;;;3.43;2.40;;;6.10;99.90;;;;;;4980988;28;20220;-93
2021/01/19 08:45:43;;;;;;;3.37;2.70;;;6.10;99.90;;;;;;4964789;28;20236;-94
2021/01/19 08:48:10;;;;;;;4.53;3.80;;;6.10;99.90;;;;;;4963401;28;20228;-94
2021/01/19 08:50:39;;;;;;;3.17;2.87;;;6.20;99.90;;;;;;4945485;28;20237;-92
2021/01/19 08:53:10;;;;;;;3.67;2.20;;;6.20;99.90;;;;;;4942879;28;20264;-93
2021/01/19 08:55:36;;;;;;;3.50;2.67;;;6.20;99.90;;;;;;4925512;28;20226;-93
2021/01/19 08:58:03;;;;;;;3.13;2.83;;;6.20;99.90;;;;;;4925711;28;20226;-95
2021/01/19 09:00:37;;;;;;;3.67;2.87;;;6.20;99.90;;;;;;4943791;29;20206;-96
2021/01/19 09:03:16;;;;;;;2.73;1.93;;;6.30;99.90;;;;;;4928929;28;20228;-96
2021/01/19 09:05:42;;;;;;;2.40;2.20;;;6.30;99.90;;;;;;4962206;28;20194;-92
2021/01/19 09:08:18;;;;;;;2.97;2.73;;;6.30;99.90;;;;;;4929009;29;20229;-93
2021/01/19 09:10:45;;;;;;;4.10;2.50;;;6.30;99.90;;;;;;4944080;29;20253;-93
2021/01/19 09:13:12;;;;;;;1.47;1.37;;;6.40;99.90;;;;;;4945020;29;20237;-94
2021/01/19 09:15:40;;;;;;;2.60;2.37;;;6.40;99.90;;;;;;4944331;28;20529;-93
2021/01/19 09:18:12;;;;;;;2.10;1.97;;;6.40;99.90;;;;;;4945127;28;20233;-93
2021/01/19 09:20:40;;;;;;;3.63;2.63;;;6.40;99.90;;;;;;4943317;29;20182;-93
2021/01/19 09:23:16;;;;;;;3.67;2.70;;;6.50;99.90;;;;;;4944907;28;20597;-92
2021/01/19 09:25:43;;;;;;;2.60;1.77;;;6.50;99.90;;;;;;4945459;28;20290;-92
2021/01/19 09:28:09;;;;;;;5.77;2.93;;;6.50;99.90;;;;;;4942161;29;20221;-93
2021/01/19 09:30:35;;;;;;;3.83;2.53;;;6.50;99.90;;;;;;4945353;28;20225;-91
2021/01/19 09:33:07;;;;;;;2.80;2.60;;;6.50;99.90;;;;;;4941399;28;20197;-92
2021/01/19 09:35:34;;;;;;;3.00;2.30;;;6.60;99.90;;;;;;4946211;29;20193;-92
2021/01/19 09:38:01;;;;;;;3.77;2.97;;;6.60;99.90;;;;;;4928968;29;20228;-93
2021/01/19 09:40:34;;;;;;;3.57;2.37;;;6.60;99.90;;;;;;4944769;29;20229;-92
2021/01/19 09:43:11;;;;;;;4.17;2.53;;;6.60;99.90;;;;;;4928504;28;20243;-91
2021/01/19 09:45:37;;;;;;;6.37;4.33;;;6.70;99.90;;;;;;4944999;28;20327;-93
2021/01/19 09:48:04;;;;;;;2.73;2.53;;;6.70;99.90;;;;;;4923979;28;20236;-92
2021/01/19 09:50:30;;;;;;;5.97;4.43;;;6.80;99.90;;;;;;4957275;28;20237;-95
2021/01/19 09:52:56;;;;;;;4.23;3.63;;;6.80;99.90;;;;;;4963193;28;20223;-95
2021/01/19 09:55:28;;;;;;;8.30;5.97;;;6.80;99.90;;;;;;4946519;28;20217;-95
2021/01/19 09:57:58;;;;;;;3.97;2.43;;;6.80;99.90;;;;;;4962532;28;20224;-95
2021/01/19 10:00:28;;;;;;;9.07;4.63;;;6.90;99.90;;;;;;4946332;28;20252;-95
2021/01/19 10:02:54;;;;;;;8.03;6.30;;;7.00;99.90;;;;;;4958625;28;20216;-95
2021/01/19 10:05:24;;;;;;;3.67;3.37;;;7.00;99.90;;;;;;4975790;28;20211;-94
2021/01/19 10:07:50;;;;;;;6.80;5.27;;;7.10;99.90;;;;;;4974114;28;20224;-94
2021/01/19 10:10:18;;;;;;;4.37;3.43;;;7.10;99.90;;;;;;4973974;28;20216;-95
2021/01/19 10:12:44;;;;;;;8.90;5.93;;;7.20;99.90;;;;;;4945882;28;20229;-95
2021/01/19 10:15:12;;;;;;;7.77;4.23;;;7.30;99.90;;;;;;4945802;28;20236;-92
2021/01/19 10:17:39;;;;;;;18.57;8.67;;;7.30;99.90;;;;;;4962809;28;20263;-94
2021/01/19 10:20:13;;;;;;;5.50;4.33;;;7.40;99.90;;;;;;4962897;28;20332;-93
2021/01/19 10:22:41;;;;;;;8.07;4.43;;;7.40;99.90;;;;;;4961892;28;20243;-94
2021/01/19 10:25:08;;;;;;;7.30;2.23;;;7.50;99.90;;;;;;4979739;28;20225;-94
2021/01/19 10:27:39;;;;;;;3.70;3.13;;;7.50;99.90;;;;;;4960450;28;20217;-93
2021/01/19 10:30:06;;;;;;;7.07;1.60;;;7.60;99.90;;;;;;4963314;28;20224;-93
2021/01/19 10:32:44;;;;;;;3.87;2.20;;;7.70;99.90;;;;;;4964352;28;20193;-94
2021/01/19 10:35:13;;;;;;;1.53;0.80;;;7.80;99.90;;;;;;4933893;28;20235;-95
2021/01/19 10:37:50;;;;;;;0.73;0.67;;;7.90;99.90;;;;;;4960049;28;20221;-94
2021/01/19 10:40:16;;;;;;;2.50;1.37;;;8.00;99.90;;;;;;4960320;28;20220;-94
2021/01/19 10:42:43;;;;;;;6.97;0.90;;;8.00;99.90;;;;;;4945659;28;20307;-94
2021/01/19 10:45:09;;;;;;;1.33;1.23;;;8.10;99.90;;;;;;4977200;28;20231;-96
2021/01/19 10:47:39;;;;;;;3.87;1.13;;;8.10;99.90;;;;;;4945471;28;20189;-94
2021/01/19 10:50:11;;;;;;;1.03;1.03;;;8.20;99.90;;;;;;4961177;28;20244;-93
2021/01/19 10:52:37;;;;;;;0.60;0.60;;;8.20;99.90;;;;;;4954907;28;20224;-95
2021/01/19 10:55:03;;;;;;;1.17;1.07;;;8.20;99.90;;;;;;4961354;28;20284;-95
2021/01/19 10:57:28;;;;;;;2.53;0.77;;;8.20;99.90;;;;;;4963252;28;20231;-96
2021/01/19 10:59:54;;;;;;;1.63;1.20;;;8.30;99.90;;;;;;4961623;28;20189;-94
2021/01/19 11:02:20;;;;;;;10.53;1.50;;;8.30;99.90;;;;;;4962997;28;20583;-95
2021/01/19 11:04:45;;;;;;;8.37;0.80;;;8.30;99.90;;;;;;4960372;28;20806;-94
2021/01/19 11:07:11;;;;;;;0.20;0.20;;;8.30;99.90;;;;;;4943185;28;20719;-96
2021/01/19 11:09:37;;;;;;;0.47;0.47;;;8.40;99.90;;;;;;4977396;28;20289;-96
2021/01/19 11:12:03;;;;;;;2.00;0.57;;;8.40;99.90;;;;;;4962408;28;20742;-93
2021/01/19 11:14:29;;;;;;;3.03;0.40;;;8.50;99.90;;;;;;4946643;28;20654;-95
2021/01/19 11:16:54;;;;;;;0.50;0.50;;;8.50;99.90;;;;;;4961087;28;20394;-95
2021/01/19 11:19:20;;;;;;;0.37;0.37;;;8.40;99.90;;;;;;4950006;28;20216;-93
2021/01/19 11:21:46;;;;;;;0.60;0.60;;;8.40;99.90;;;;;;4960019;28;20247;-94
2021/01/19 11:24:12;;;;;;;2.40;1.43;;;8.40;99.90;;;;;;4961050;28;20221;-95
2021/01/19 11:26:42;;;;;;;2.03;0.83;;;8.50;99.90;;;;;;4963395;28;20208;-94
2021/01/19 11:29:08;;;;;;;2.43;1.03;;;8.40;99.90;;;;;;4963170;28;20221;-93
2021/01/19 11:31:35;;;;;;;3.50;2.03;;;8.30;99.90;;;;;;4961991;28;20228;-93
2021/01/19 11:34:05;;;;;;;1.97;0.50;;;8.40;99.90;;;;;;4961413;28;20334;-92
2021/01/19 11:36:34;;;;;;;0.37;0.37;;;8.40;99.90;;;;;;4962666;28;20213;-91
2021/01/19 11:39:00;;;;;;;0.40;0.40;;;8.40;99.90;;;;;;4961026;28;20238;-94
2021/01/19 11:41:27;;;;;;;8.50;0.77;;;8.50;99.90;;;;;;4946336;28;20212;-93
2021/01/19 11:43:55;;;;;;;0.50;0.50;;;8.50;99.90;;;;;;4961635;28;20228;-95
2021/01/19 11:46:31;;;;;;;4.67;0.77;;;8.50;99.90;;;;;;4956323;28;20224;-93
2021/01/19 11:48:59;;;;;;;1.10;0.77;;;8.50;99.90;;;;;;4945505;28;20218;-93
2021/01/19 11:51:38;;;;;;;0.83;0.83;;;8.50;99.90;;;;;;4961668;28;20260;-94
2021/01/19 11:54:04;;;;;;;4.10;1.80;;;8.50;99.90;;;;;;4977573;28;20260;-93
2021/01/19 11:56:41;;;;;;;2.87;1.87;;;8.50;99.90;;;;;;4964531;28;20669;-95
2021/01/19 11:59:09;;;;;;;1.80;0.80;;;8.50;99.90;;;;;;4961594;28;21230;-94
2021/01/19 12:01:35;;;;;;;2.30;2.03;;;8.50;99.90;;;;;;4944963;28;20228;-94
2021/01/19 12:04:01;;;;;;;0.70;0.70;;;8.50;99.90;;;;;;4961458;28;20311;-93
2021/01/19 12:06:32;;;;;;;0.93;0.83;;;8.60;99.90;;;;;;4961834;28;21252;-94
2021/01/19 12:08:58;;;;;;;1.47;1.37;;;8.60;99.90;;;;;;4961595;28;20193;-93
2021/01/19 12:11:24;;;;;;;17.00;1.60;;;8.60;99.90;;;;;;4948297;28;20569;-91
2021/01/19 12:13:50;;;;;;;6.97;1.50;;;8.60;99.90;;;;;;4945244;28;20232;-94
2021/01/19 12:16:20;;;;;;;11.90;1.23;;;8.50;99.90;;;;;;4961710;28;20232;-93
2021/01/19 12:18:48;;;;;;;0.97;0.87;;;8.40;99.90;;;;;;4961287;28;20300;-93
2021/01/19 12:21:14;;;;;;;0.67;0.67;;;8.50;99.90;;;;;;4960706;28;20251;-93
2021/01/19 12:23:40;;;;;;;0.83;0.77;;;8.50;99.90;;;;;;4961894;28;20223;-92
2021/01/19 12:26:06;;;;;;;2.07;0.93;;;8.60;99.90;;;;;;4962175;28;20231;-93
2021/01/19 12:28:32;;;;;;;3.00;2.37;;;8.70;99.90;;;;;;4960124;28;20224;-93
2021/01/19 12:30:58;;;;;;;1.93;1.30;;;8.70;99.90;;;;;;4959154;28;20516;-92
2021/01/19 12:33:23;;;;;;;2.10;2.00;;;8.70;99.90;;;;;;4961587;28;20610;-91
2021/01/19 12:35:52;;;;;;;0.93;0.93;;;8.70;99.90;;;;;;4978013;28;20976;-91
2021/01/19 12:38:19;;;;;;;2.43;1.23;;;8.70;99.90;;;;;;4981314;28;20710;-90
2021/01/19 12:40:45;;;;;;;1.13;1.03;;;8.70;99.90;;;;;;4962518;28;20228;-91
2021/01/19 12:43:11;;;;;;;4.37;0.50;;;8.70;99.90;;;;;;4965254;28;20368;-90
2021/01/19 12:45:38;;;;;;;1.73;1.50;;;8.70;99.90;;;;;;4964305;28;20244;-91
2021/01/19 12:48:05;;;;;;;0.77;0.77;;;8.70;99.90;;;;;;4964800;28;20231;-91
2021/01/19 12:50:33;;;;;;;4.73;0.73;;;8.70;99.90;;;;;;4965319;28;20693;-92
2021/01/19 12:53:01;;;;;;;2.43;1.37;;;8.70;99.90;;;;;;4976121;28;20220;-92
2021/01/19 12:55:28;;;;;;;0.87;0.87;;;8.70;99.90;;;;;;4948298;28;20307;-92
2021/01/19 12:57:54;;;;;;;0.67;0.60;;;8.70;99.90;;;;;;4964629;28;20213;-93
2021/01/19 13:00:20;;;;;;;4.80;1.37;;;8.70;99.90;;;;;;4948290;28;20220;-92
2021/01/19 13:02:46;;;;;;;2.30;0.93;;;8.80;99.90;;;;;;4979772;28;20218;-91
2021/01/19 13:05:12;;;;;;;1.70;0.73;;;8.80;99.90;;;;;;4965372;28;20200;-90
2021/01/19 13:07:39;;;;;;;1.37;0.77;;;8.80;99.90;;;;;;4947034;28;20227;-92